createdAt,value
2022-09-20T00:00:48.486Z,2.17
2022-09-20T00:03:16.524Z,3.15
2022-09-20T00:05:45.396Z,2.58
2022-09-20T00:08:14.714Z,3.58
2022-09-20T00:10:42.952Z,3.75
2022-09-20T00:13:11.791Z,3.90
2022-09-20T00:15:43.544Z,6.15
2022-09-20T00:18:11.694Z,3.38
2022-09-20T00:20:46.508Z,2.70
2022-09-20T00:23:13.998Z,2.42
2022-09-20T00:25:41.508Z,2.10
2022-09-20T00:28:09.207Z,3.42
2022-09-20T00:30:36.551Z,5.93
2022-09-20T00:33:04.081Z,4.30
2022-09-20T00:35:31.456Z,4.20
2022-09-20T00:37:58.791Z,3.53
2022-09-20T00:40:30.288Z,4.78
2022-09-20T00:42:57.704Z,4.30
2022-09-20T00:45:28.407Z,3.40
2022-09-20T00:48:18.199Z,6.53
2022-09-20T00:50:52.223Z,3.95
2022-09-20T00:53:21.185Z,2.47
2022-09-20T00:55:56.086Z,4.82
2022-09-20T00:58:23.951Z,4.35
2022-09-20T01:00:51.496Z,2.95
2022-09-20T01:03:20.179Z,2.97
2022-09-20T01:05:47.441Z,3.95
2022-09-20T01:08:14.742Z,3.30
2022-09-20T01:10:42.659Z,1.73
2022-09-20T01:13:09.975Z,4.57
2022-09-20T01:15:37.368Z,2.25
2022-09-20T01:18:04.990Z,1.20
2022-09-20T01:20:36.183Z,7.10
2022-09-20T01:23:07.246Z,4.07
2022-09-20T01:25:46.508Z,5.30
2022-09-20T01:28:13.860Z,4.38
2022-09-20T01:30:48.257Z,6.82
2022-09-20T01:35:47.192Z,3.50
2022-09-20T01:38:23.395Z,4.05
2022-09-20T01:40:59.749Z,5.22
2022-09-20T01:43:30.720Z,4.25
2022-09-20T01:45:58.169Z,7.13
2022-09-20T01:48:39.655Z,3.58
2022-09-20T01:51:11.067Z,2.55
2022-09-20T01:54:00.156Z,3.55
2022-09-20T01:56:52.089Z,2.90
2022-09-20T01:59:34.398Z,4.15
2022-09-20T02:02:39.482Z,2.97
2022-09-20T02:05:41.851Z,4.00
2022-09-20T02:08:31.181Z,2.45
2022-09-20T02:11:18.533Z,3.63
2022-09-20T02:14:05.121Z,3.05
2022-09-20T02:16:46.359Z,3.72
2022-09-20T02:19:32.154Z,5.15
2022-09-20T02:22:26.631Z,2.80
2022-09-20T02:25:04.686Z,3.47
2022-09-20T02:27:42.298Z,3.72
2022-09-20T02:30:28.410Z,3.20
2022-09-20T02:33:17.402Z,2.30
2022-09-20T02:36:22.574Z,2.72
2022-09-20T02:39:05.080Z,4.47
2022-09-20T02:41:55.525Z,1.50
2022-09-20T02:44:25.634Z,2.17
2022-09-20T02:46:59.257Z,4.90
2022-09-20T02:50:04.170Z,4.32
2022-09-20T02:52:49.916Z,3.28
2022-09-20T02:55:30.051Z,3.50
2022-09-20T02:58:31.299Z,3.38
2022-09-20T03:01:26.677Z,3.53
2022-09-20T03:04:03.392Z,12.00
2022-09-20T03:06:56.882Z,4.57
2022-09-20T03:10:08.596Z,5.55
2022-09-20T03:13:00.385Z,5.00
2022-09-20T03:15:46.571Z,7.90
2022-09-20T03:18:19.523Z,3.05
2022-09-20T03:21:14.463Z,2.72
2022-09-20T03:23:49.942Z,4.45
2022-09-20T03:26:28.049Z,3.55
2022-09-20T03:29:08.906Z,6.50
2022-09-20T03:31:46.169Z,6.47
2022-09-20T03:34:48.780Z,4.35
2022-09-20T03:37:18.838Z,4.53
2022-09-20T03:39:58.319Z,3.47
2022-09-20T03:42:27.093Z,2.95
2022-09-20T03:45:31.689Z,5.18
2022-09-20T03:48:11.255Z,8.25
2022-09-20T03:50:55.074Z,3.42
2022-09-20T03:53:40.440Z,3.87
2022-09-20T03:56:16.747Z,9.23
2022-09-20T03:58:55.739Z,3.72
2022-09-20T04:01:38.200Z,3.88
2022-09-20T04:04:33.148Z,5.75
2022-09-20T04:07:06.496Z,3.35
2022-09-20T04:09:58.510Z,2.78
2022-09-20T04:12:52.677Z,6.10
2022-09-20T04:15:36.347Z,4.70
2022-09-20T04:18:22.568Z,3.70
2022-09-20T04:20:55.843Z,9.15
2022-09-20T04:23:47.674Z,7.05
2022-09-20T04:26:16.160Z,8.85
2022-09-20T04:28:47.331Z,6.05
2022-09-20T04:31:38.003Z,8.27
2022-09-20T04:34:07.105Z,4.75
2022-09-20T04:36:50.736Z,3.08
2022-09-20T04:39:34.216Z,4.65
2022-09-20T04:42:30.106Z,4.97
2022-09-20T04:45:34.968Z,4.40
2022-09-20T04:48:23.068Z,4.03
2022-09-20T04:51:16.491Z,5.47
2022-09-20T04:53:47.545Z,4.10
2022-09-20T04:56:21.791Z,5.95
2022-09-20T04:58:49.830Z,4.68
2022-09-20T05:01:35.759Z,2.97
2022-09-20T05:04:24.353Z,6.80
2022-09-20T05:07:25.941Z,5.88
2022-09-20T05:09:59.210Z,8.10
2022-09-20T05:12:37.998Z,7.20
2022-09-20T05:15:23.499Z,7.82
2022-09-20T05:18:10.889Z,10.15
2022-09-20T05:21:08.831Z,5.65
2022-09-20T05:24:01.933Z,8.27
2022-09-20T05:26:31.996Z,8.52
2022-09-20T05:29:05.092Z,5.15
2022-09-20T05:31:42.983Z,7.65
2022-09-20T05:34:18.183Z,5.10
2022-09-20T05:36:50.095Z,7.88
2022-09-20T05:39:40.418Z,6.72
2022-09-20T05:42:32.754Z,7.28
2022-09-20T05:45:18.117Z,7.22
2022-09-20T05:48:07.255Z,6.13
2022-09-20T05:50:57.169Z,6.20
2022-09-20T05:53:43.955Z,8.27
2022-09-20T05:56:20.118Z,9.95
2022-09-20T05:59:11.215Z,8.90
2022-09-20T06:02:17.779Z,8.18
2022-09-20T06:05:14.212Z,9.10
2022-09-20T06:07:46.162Z,7.05
2022-09-20T06:10:41.839Z,9.93
2022-09-20T06:13:32.057Z,10.07
2022-09-20T06:16:06.866Z,7.50
2022-09-20T06:18:50.371Z,14.25
2022-09-20T06:21:31.939Z,11.30
2022-09-20T06:24:00.287Z,8.07
2022-09-20T06:26:30.384Z,6.72
2022-09-20T06:29:03.010Z,13.70
2022-09-20T06:31:30.298Z,9.90
2022-09-20T06:34:06.002Z,8.98
2022-09-20T06:37:06.972Z,6.97
2022-09-20T06:40:02.072Z,7.35
2022-09-20T06:44:57.035Z,10.32
2022-09-20T06:47:26.119Z,8.05
2022-09-20T06:49:53.526Z,10.63
2022-09-20T06:52:21.526Z,8.38
2022-09-20T06:54:51.791Z,6.03
2022-09-20T06:57:21.563Z,6.50
2022-09-20T06:59:48.845Z,8.63
2022-09-20T07:02:16.164Z,9.57
2022-09-20T07:04:44.603Z,7.10
2022-09-20T07:07:15.463Z,10.38
2022-09-20T07:09:42.802Z,10.00
2022-09-20T07:12:12.065Z,8.48
2022-09-20T07:14:39.538Z,11.45
2022-09-20T07:17:07.535Z,11.07
2022-09-20T07:19:36.722Z,16.38
2022-09-20T07:22:04.065Z,7.95
2022-09-20T07:24:32.353Z,7.53
2022-09-20T07:27:01.018Z,7.80
2022-09-20T07:29:28.593Z,11.52
2022-09-20T07:31:56.607Z,13.90
2022-09-20T07:34:24.194Z,10.68
2022-09-20T07:36:52.285Z,9.65
2022-09-20T07:39:19.635Z,8.70
2022-09-20T07:41:50.650Z,9.43
2022-09-20T07:44:21.559Z,12.48
2022-09-20T07:46:52.677Z,9.85
2022-09-20T07:49:20.375Z,9.07
2022-09-20T07:51:51.125Z,11.82
2022-09-20T07:54:18.643Z,9.80
2022-09-20T07:56:46.126Z,8.20
2022-09-20T07:59:16.569Z,11.27
2022-09-20T08:01:43.925Z,9.70
2022-09-20T08:04:11.279Z,13.98
2022-09-20T08:06:39.785Z,10.88
2022-09-20T08:09:10.911Z,11.32
2022-09-20T08:11:39.787Z,17.25
2022-09-20T08:14:09.120Z,12.02
2022-09-20T08:16:41.989Z,19.90
2022-09-20T08:19:09.713Z,15.05
2022-09-20T08:21:39.813Z,12.10
2022-09-20T08:24:07.211Z,20.15
2022-09-20T08:26:37.271Z,24.80
2022-09-20T08:29:05.986Z,11.75
2022-09-20T08:31:37.265Z,10.18
2022-09-20T08:34:06.542Z,14.02
2022-09-20T08:36:37.002Z,12.45
2022-09-20T08:42:19.065Z,11.15
2022-09-20T08:45:00.070Z,16.42
2022-09-20T08:47:31.563Z,18.05
2022-09-20T08:50:00.583Z,14.10
2022-09-20T08:52:36.662Z,22.38
2022-09-20T08:55:13.472Z,19.30
2022-09-20T08:57:41.174Z,15.93
2022-09-20T09:00:16.001Z,17.00
2022-09-20T09:02:43.483Z,14.48
2022-09-20T09:05:28.018Z,12.05
2022-09-20T09:07:55.397Z,12.40
2022-09-20T09:10:22.686Z,17.48
2022-09-20T09:12:49.957Z,16.05
2022-09-20T09:15:26.521Z,17.85
2022-09-20T09:17:53.864Z,13.38
2022-09-20T09:20:22.564Z,13.10
2022-09-20T09:23:04.846Z,13.00
2022-09-20T09:25:34.308Z,13.65
2022-09-20T09:28:14.021Z,11.95
2022-09-20T09:30:46.894Z,17.35
2022-09-20T09:33:28.047Z,15.05
2022-09-20T09:36:07.917Z,14.05
2022-09-20T09:38:39.049Z,14.27
2022-09-20T09:41:11.441Z,14.40
2022-09-20T09:43:40.556Z,13.13
2022-09-20T09:46:23.669Z,14.75
2022-09-20T09:49:16.107Z,10.45
2022-09-20T09:52:00.251Z,8.00
2022-09-20T09:54:37.338Z,14.13
2022-09-20T09:57:26.408Z,9.75
2022-09-20T10:00:19.704Z,8.90
2022-09-20T10:02:57.822Z,9.40
2022-09-20T10:05:41.211Z,10.00
2022-09-20T10:08:11.595Z,7.72
2022-09-20T10:11:00.908Z,11.45
2022-09-20T10:13:41.203Z,9.85
2022-09-20T10:16:47.292Z,14.27
2022-09-20T10:19:52.361Z,10.93
2022-09-20T10:22:35.169Z,8.25
2022-09-20T10:25:14.354Z,9.15
2022-09-20T10:27:49.169Z,12.75
2022-09-20T10:30:24.079Z,8.20
2022-09-20T10:33:32.877Z,12.32
2022-09-20T10:36:12.265Z,8.70
2022-09-20T10:39:05.259Z,10.02
2022-09-20T10:42:06.352Z,8.43
2022-09-20T10:45:11.268Z,7.85
2022-09-20T10:47:52.274Z,9.13
2022-09-20T10:50:34.607Z,6.38
2022-09-20T10:53:27.189Z,8.48
2022-09-20T10:56:06.837Z,5.80
2022-09-20T10:59:17.327Z,10.80
2022-09-20T11:02:08.130Z,9.82
2022-09-20T11:05:07.406Z,11.90
2022-09-20T11:07:43.357Z,8.23
2022-09-20T11:10:25.475Z,9.25
2022-09-20T11:13:12.359Z,12.27
2022-09-20T11:15:47.021Z,10.27
2022-09-20T11:18:26.125Z,10.15
2022-09-20T11:21:10.343Z,8.75
2022-09-20T11:23:55.686Z,11.93
2022-09-20T11:26:31.181Z,11.93
2022-09-20T11:29:15.514Z,8.70
2022-09-20T11:31:44.949Z,5.55
2022-09-20T11:34:43.179Z,11.40
2022-09-20T11:37:10.527Z,13.20
2022-09-20T11:39:55.948Z,6.07
2022-09-20T11:42:29.438Z,8.85
2022-09-20T11:44:56.772Z,6.77
2022-09-20T11:47:54.359Z,8.65
2022-09-20T11:51:00.339Z,9.40
2022-09-20T11:53:55.475Z,7.82
2022-09-20T11:58:51.179Z,4.57
2022-09-20T12:01:29.811Z,6.78
2022-09-20T12:04:32.416Z,12.15
2022-09-20T12:07:11.482Z,6.53
2022-09-20T12:09:42.739Z,7.97
2022-09-20T12:12:28.530Z,9.75
2022-09-20T12:14:56.781Z,8.15
2022-09-20T12:17:46.014Z,6.00
2022-09-20T12:20:34.838Z,9.40
2022-09-20T12:23:45.133Z,7.03
2022-09-20T12:26:21.606Z,9.40
2022-09-20T12:28:52.379Z,8.35
2022-09-20T12:31:25.880Z,8.23
2022-09-20T12:34:01.066Z,7.53
2022-09-20T12:36:30.347Z,5.15
2022-09-20T12:39:17.616Z,11.73
2022-09-20T12:41:54.826Z,7.95
2022-09-20T12:44:35.416Z,5.55
2022-09-20T12:47:11.855Z,8.02
2022-09-20T12:50:07.022Z,6.80
2022-09-20T12:53:00.437Z,8.85
2022-09-20T12:55:27.927Z,4.70
2022-09-20T12:57:58.552Z,6.00
2022-09-20T13:00:38.112Z,9.73
2022-09-20T13:03:23.999Z,11.25
2022-09-20T13:06:06.924Z,7.50
2022-09-20T13:08:59.740Z,7.63
2022-09-20T13:11:42.142Z,14.02
2022-09-20T13:14:26.228Z,10.73
2022-09-20T13:17:02.445Z,6.25
2022-09-20T13:19:37.955Z,7.78
2022-09-20T13:22:25.852Z,10.75
2022-09-20T13:24:56.866Z,16.23
2022-09-20T13:27:24.893Z,14.90
2022-09-20T13:29:53.411Z,5.07
2022-09-20T13:32:24.532Z,8.02
2022-09-20T13:35:10.071Z,10.45
2022-09-20T13:37:38.079Z,5.85
2022-09-20T13:40:06.766Z,9.27
2022-09-20T13:42:35.722Z,8.65
2022-09-20T13:45:04.206Z,6.40
2022-09-20T13:47:32.004Z,6.53
2022-09-20T13:50:17.364Z,6.20
2022-09-20T13:52:49.695Z,8.05
2022-09-20T13:55:46.470Z,11.02
2022-09-20T13:58:33.185Z,12.98
2022-09-20T14:01:05.513Z,6.88
2022-09-20T14:03:33.959Z,9.30
2022-09-20T14:06:09.487Z,5.80
2022-09-20T14:08:49.982Z,9.25
2022-09-20T14:11:18.603Z,7.80
2022-09-20T14:13:55.643Z,5.00
2022-09-20T14:16:24.834Z,8.32
2022-09-20T14:18:52.229Z,9.23
2022-09-20T14:21:24.977Z,6.47
2022-09-20T14:24:15.932Z,8.45
2022-09-20T14:26:45.979Z,5.85
2022-09-20T14:29:39.997Z,13.55
2022-09-20T14:32:19.483Z,4.85
2022-09-20T14:34:59.879Z,8.02
2022-09-20T14:37:50.680Z,10.55
2022-09-20T14:40:30.999Z,6.70
2022-09-20T14:43:05.400Z,4.90
2022-09-20T14:48:10.423Z,5.03
2022-09-20T14:51:07.601Z,5.90
2022-09-20T14:53:38.491Z,7.70
2022-09-20T14:56:05.900Z,6.53
2022-09-20T14:58:33.707Z,4.60
2022-09-20T15:01:24.025Z,10.82
2022-09-20T15:03:51.355Z,7.47
2022-09-20T15:06:19.102Z,9.40
2022-09-20T15:08:46.930Z,4.72
2022-09-20T15:11:18.239Z,10.18
2022-09-20T15:13:45.585Z,7.05
2022-09-20T15:16:13.486Z,4.03
2022-09-20T15:18:41.840Z,4.53
2022-09-20T15:21:11.294Z,3.90
2022-09-20T15:23:39.383Z,5.68
2022-09-20T15:26:07.305Z,5.25
2022-09-20T15:28:34.727Z,10.27
2022-09-20T15:31:02.005Z,10.13
2022-09-20T15:33:30.600Z,8.13
2022-09-20T15:35:58.130Z,3.42
2022-09-20T15:38:27.106Z,5.95
2022-09-20T15:40:54.513Z,9.55
2022-09-20T15:43:24.248Z,7.47
2022-09-20T15:45:52.462Z,7.28
2022-09-20T15:48:21.396Z,5.13
2022-09-20T15:51:00.407Z,6.35
2022-09-20T15:53:32.904Z,5.85
2022-09-20T15:56:01.835Z,9.68
2022-09-20T15:58:35.421Z,4.47
2022-09-20T16:01:07.974Z,8.18
2022-09-20T16:03:35.903Z,5.63
2022-09-20T16:06:07.095Z,5.03
2022-09-20T16:08:38.479Z,4.20
2022-09-20T16:11:06.747Z,8.48
2022-09-20T16:13:36.248Z,3.90
2022-09-20T16:16:03.846Z,6.65
2022-09-20T16:18:49.834Z,4.65
2022-09-20T16:21:18.404Z,8.63
2022-09-20T16:23:50.062Z,6.28
2022-09-20T16:26:17.688Z,6.13
2022-09-20T16:28:47.521Z,8.50
2022-09-20T16:31:34.865Z,6.80
2022-09-20T16:34:11.753Z,6.47
2022-09-20T16:36:41.478Z,4.05
2022-09-20T16:39:08.955Z,5.13
2022-09-20T16:41:36.346Z,6.60
2022-09-20T16:44:03.663Z,8.20
2022-09-20T16:46:31.287Z,9.10
2022-09-20T16:49:00.838Z,3.90
2022-09-20T16:51:33.267Z,8.25
2022-09-20T16:54:10.694Z,3.80
2022-09-20T16:56:38.678Z,10.23
2022-09-20T16:59:07.410Z,5.57
2022-09-20T17:01:34.815Z,5.57
2022-09-20T17:04:05.227Z,5.90
2022-09-20T17:06:34.237Z,6.97
2022-09-20T17:09:01.613Z,5.18
2022-09-20T17:11:30.552Z,8.35
2022-09-20T17:13:58.049Z,8.18
2022-09-20T17:16:27.742Z,6.85
2022-09-20T17:18:59.623Z,7.82
2022-09-20T17:21:27.663Z,5.70
2022-09-20T17:23:56.427Z,6.20
2022-09-20T17:26:50.679Z,5.82
2022-09-20T17:29:18.767Z,4.18
2022-09-20T17:31:54.124Z,6.35
2022-09-20T17:34:22.944Z,5.88
2022-09-20T17:36:50.817Z,7.32
2022-09-20T17:39:18.334Z,5.25
2022-09-20T17:41:47.204Z,4.90
2022-09-20T17:44:14.732Z,10.20
2022-09-20T17:46:43.573Z,7.63
2022-09-20T17:49:15.932Z,7.00
2022-09-20T17:51:50.643Z,7.60
2022-09-20T17:54:19.106Z,9.30
2022-09-20T17:56:51.314Z,11.68
2022-09-20T17:59:19.047Z,5.45
2022-09-20T18:01:47.625Z,9.40
2022-09-20T18:04:15.029Z,6.32
2022-09-20T18:06:45.661Z,9.93
2022-09-20T18:09:24.319Z,7.65
2022-09-20T18:11:53.169Z,9.18
2022-09-20T18:14:23.150Z,9.65
2022-09-20T18:16:59.167Z,9.35
2022-09-20T18:19:32.527Z,8.38
2022-09-20T18:22:01.255Z,8.50
2022-09-20T18:24:28.671Z,7.00
2022-09-20T18:26:56.044Z,9.27
2022-09-20T18:29:24.802Z,7.15
2022-09-20T18:31:54.297Z,7.22
2022-09-20T18:34:23.217Z,5.70
2022-09-20T18:36:54.839Z,9.25
2022-09-20T18:39:23.171Z,10.00
2022-09-20T18:41:50.866Z,7.13
2022-09-20T18:44:20.878Z,9.18
2022-09-20T18:46:48.323Z,6.13
2022-09-20T18:49:16.905Z,9.73
2022-09-20T18:51:44.419Z,5.78
2022-09-20T18:54:12.037Z,6.38
2022-09-20T18:56:40.618Z,3.72
2022-09-20T18:59:18.073Z,6.93
2022-09-20T19:01:54.416Z,8.30
2022-09-20T19:04:44.608Z,6.50
2022-09-20T19:07:27.291Z,4.82
2022-09-20T19:10:00.218Z,4.55
2022-09-20T19:12:45.571Z,4.15
2022-09-20T19:15:29.255Z,9.90
2022-09-20T19:18:06.128Z,4.18
2022-09-20T19:21:00.650Z,4.72
2022-09-20T19:23:52.179Z,6.05
2022-09-20T19:26:24.012Z,7.75
2022-09-20T19:28:53.164Z,6.85
2022-09-20T19:31:25.640Z,3.40
2022-09-20T19:33:56.971Z,6.43
2022-09-20T19:37:04.435Z,5.00
2022-09-20T19:39:48.177Z,5.95
2022-09-20T19:42:36.179Z,4.63
2022-09-20T19:45:28.969Z,5.50
2022-09-20T19:48:05.322Z,6.85
2022-09-20T19:50:46.260Z,6.63
2022-09-20T19:53:14.726Z,2.78
2022-09-20T19:55:47.287Z,5.93
2022-09-20T19:58:15.027Z,7.68
2022-09-20T20:00:46.186Z,7.63
2022-09-20T20:03:14.085Z,5.40
2022-09-20T20:05:46.415Z,6.75
2022-09-20T20:08:27.918Z,6.93
2022-09-20T20:11:16.881Z,9.77
2022-09-20T20:14:03.242Z,5.20
2022-09-20T20:16:33.542Z,5.82
2022-09-20T20:19:16.302Z,7.35
2022-09-20T20:22:06.050Z,5.95
2022-09-20T20:24:52.369Z,6.35
2022-09-20T20:27:20.177Z,8.85
2022-09-20T20:29:47.515Z,6.82
2022-09-20T20:32:15.159Z,5.15
2022-09-20T20:34:42.483Z,11.40
2022-09-20T20:37:09.789Z,8.32
2022-09-20T20:39:37.041Z,9.50
2022-09-20T20:42:06.135Z,7.28
2022-09-20T20:44:37.075Z,9.07
2022-09-20T20:47:05.799Z,9.85
2022-09-20T20:49:33.300Z,10.05
2022-09-20T20:52:04.605Z,8.65
2022-09-20T20:54:32.397Z,8.93
2022-09-20T20:56:59.763Z,6.75
2022-09-20T20:59:27.100Z,7.38
2022-09-20T21:01:54.425Z,6.20
2022-09-20T21:04:21.922Z,6.63
2022-09-20T21:06:50.385Z,7.90
2022-09-20T21:09:17.714Z,15.60
2022-09-20T21:11:46.615Z,7.38
2022-09-20T21:14:13.914Z,9.45
2022-09-20T21:16:43.023Z,7.05
2022-09-20T21:19:14.472Z,14.05
2022-09-20T21:21:42.798Z,11.18
2022-09-20T21:24:11.624Z,9.57
2022-09-20T21:26:39.221Z,8.32
2022-09-20T21:29:08.307Z,14.52
2022-09-20T21:31:37.059Z,9.93
2022-09-20T21:34:08.049Z,9.95
2022-09-20T21:36:35.882Z,10.20
2022-09-20T21:39:03.826Z,8.57
2022-09-20T21:41:32.448Z,9.02
2022-09-20T21:44:00.801Z,8.50
2022-09-20T21:46:29.738Z,7.60
2022-09-20T21:48:58.064Z,9.90
2022-09-20T21:51:26.270Z,9.15
2022-09-20T21:53:54.271Z,7.85
2022-09-20T21:56:21.566Z,6.90
2022-09-20T21:58:48.879Z,8.98
2022-09-20T22:01:17.656Z,12.57
2022-09-20T22:03:52.480Z,4.72
2022-09-20T22:06:21.095Z,8.60
2022-09-20T22:08:51.666Z,8.18
2022-09-20T22:11:19.928Z,7.07
2022-09-20T22:13:48.348Z,5.30
2022-09-20T22:16:17.463Z,8.55
2022-09-20T22:18:44.933Z,12.07
2022-09-20T22:21:13.213Z,8.30
2022-09-20T22:23:40.979Z,7.53
2022-09-20T22:26:13.282Z,8.13
2022-09-20T22:28:40.760Z,12.60
2022-09-20T22:31:09.041Z,8.50
2022-09-20T22:33:40.032Z,5.70
2022-09-20T22:36:08.351Z,11.80
2022-09-20T22:38:35.748Z,4.90
2022-09-20T22:41:03.067Z,6.50
2022-09-20T22:43:32.082Z,9.25
2022-09-20T22:46:03.750Z,10.85
2022-09-20T22:48:32.183Z,6.53
2022-09-20T22:51:14.195Z,9.50
2022-09-20T22:53:41.591Z,8.93
2022-09-20T22:56:21.160Z,8.00
2022-09-20T22:58:49.823Z,13.48
2022-09-20T23:01:19.226Z,7.75
2022-09-20T23:03:48.918Z,5.97
2022-09-20T23:06:20.837Z,8.77
2022-09-20T23:08:52.463Z,6.43
2022-09-20T23:11:19.965Z,7.05
2022-09-20T23:13:47.428Z,6.95
2022-09-20T23:16:18.590Z,8.95
2022-09-20T23:18:46.352Z,7.32
2022-09-20T23:21:13.849Z,7.05
2022-09-20T23:23:43.877Z,6.60
2022-09-20T23:26:16.093Z,5.30
2022-09-20T23:28:44.970Z,6.35
2022-09-20T23:31:14.783Z,6.75
2022-09-20T23:33:56.259Z,4.85
2022-09-20T23:36:23.803Z,6.70
2022-09-20T23:38:51.259Z,3.95
2022-09-20T23:41:19.635Z,6.68
2022-09-20T23:43:47.047Z,7.93
2022-09-20T23:46:15.029Z,5.55
2022-09-20T23:48:42.481Z,4.22
2022-09-20T23:51:11.706Z,6.88
2022-09-20T23:53:39.086Z,3.90
2022-09-20T23:56:06.426Z,6.97
2022-09-20T23:58:35.871Z,7.10
